Time,TemperatureF,DewpointF,PressureIn,WindDirection,WindDirectionDegrees,WindSpeedMPH,WindSpeedGustMPH,Humidity,HourlyPrecipIn,Conditions,Clouds,dailyrainin,SoftwareType,DateUTC
2013-05-22 00:00:00,72.4,66.9,29.86,SW,214,2.0,2.0,83,0.00,,,0.00,Wunderground v.1.15,2013-05-22 04:00:00,
2013-05-22 00:05:00,72.3,66.8,29.86,SW,233,1.0,5.0,83,0.00,,,0.00,Wunderground v.1.15,2013-05-22 04:05:00,
2013-05-22 00:10:00,72.1,66.6,29.86,SW,233,1.0,1.0,83,0.00,,,0.00,Wunderground v.1.15,2013-05-22 04:10:00,
2013-05-22 00:15:00,71.8,66.4,29.85,SW,233,0.0,5.0,83,0.00,,,0.00,Wunderground v.1.15,2013-05-22 04:15:00,
2013-05-22 00:25:00,70.9,66.2,29.85,SW,233,0.0,5.0,85,0.00,,,0.00,Wunderground v.1.15,2013-05-22 04:25:00,
2013-05-22 00:30:00,70.6,66.2,29.85,SW,233,0.0,5.0,86,0.00,,,0.00,Wunderground v.1.15,2013-05-22 04:30:00,
2013-05-22 00:35:00,70.3,65.9,29.85,SW,233,0.0,5.0,86,0.00,,,0.00,Wunderground v.1.15,2013-05-22 04:35:00,
2013-05-22 00:40:00,70.1,66.0,29.85,SSW,198,0.0,5.0,87,0.00,,,0.00,Wunderground v.1.15,2013-05-22 04:40:00,
2013-05-22 00:45:00,70.2,66.1,29.86,SSW,213,1.0,5.0,87,0.00,,,0.00,Wunderground v.1.15,2013-05-22 04:45:00,
2013-05-22 00:50:00,70.7,66.3,29.86,SW,221,3.0,5.0,86,0.00,,,0.00,Wunderground v.1.15,2013-05-22 04:50:00,
2013-05-22 00:55:00,71.3,66.6,29.86,South,179,4.0,5.0,85,0.00,,,0.00,Wunderground v.1.15,2013-05-22 04:55:00,
2013-05-22 01:00:00,71.8,66.7,29.86,SW,217,4.0,6.0,84,0.00,,,0.00,Wunderground v.1.15,2013-05-22 05:00:00,
2013-05-22 01:10:00,72.2,66.7,29.85,SSW,193,5.0,5.0,83,0.00,,,0.00,Wunderground v.1.15,2013-05-22 05:10:00,
2013-05-22 01:15:00,72.4,66.9,29.85,SSW,201,5.0,6.0,83,0.00,,,0.00,Wunderground v.1.15,2013-05-22 05:15:00,
2013-05-22 01:20:00,72.5,66.7,29.85,SSW,211,5.0,5.0,82,0.00,,,0.00,Wunderground v.1.15,2013-05-22 05:20:00,
2013-05-22 01:25:00,72.5,66.7,29.85,SSW,197,5.0,5.0,82,0.00,,,0.00,Wunderground v.1.15,2013-05-22 05:25:00,
2013-05-22 01:30:00,72.5,66.7,29.85,SW,219,4.0,4.0,82,0.00,,,0.00,Wunderground v.1.15,2013-05-22 05:30:00,
2013-05-22 01:35:00,72.5,66.7,29.85,South,190,3.0,7.0,82,0.00,,,0.00,Wunderground v.1.15,2013-05-22 05:35:00,
2013-05-22 01:40:00,72.4,66.6,29.85,SW,217,3.0,3.0,82,0.00,,,0.00,Wunderground v.1.15,2013-05-22 05:40:00,
2013-05-22 01:50:00,72.3,66.8,29.84,South,191,3.0,3.0,83,0.00,,,0.00,Wunderground v.1.15,2013-05-22 05:50:00,
2013-05-22 01:55:00,72.2,66.7,29.84,SSE,160,4.0,5.0,83,0.00,,,0.00,Wunderground v.1.15,2013-05-22 05:55:00,
2013-05-22 02:00:00,72.2,66.7,29.84,SSW,198,5.0,5.0,83,0.00,,,0.00,Wunderground v.1.15,2013-05-22 06:00:00,
2013-05-22 02:10:00,72.0,66.9,29.84,SSW,198,5.0,5.0,84,0.00,,,0.00,Wunderground v.1.15,2013-05-22 06:10:00,
2013-05-22 02:15:00,71.8,66.7,29.84,SSW,194,6.0,8.0,84,0.00,,,0.00,Wunderground v.1.15,2013-05-22 06:15:00,
2013-05-22 02:20:00,71.6,66.5,29.84,SSW,205,5.0,5.0,84,0.00,,,0.00,Wunderground v.1.15,2013-05-22 06:20:00,
2013-05-22 02:25:00,71.4,66.7,29.84,SW,221,5.0,6.0,85,0.00,,,0.00,Wunderground v.1.15,2013-05-22 06:25:00,
2013-05-22 02:35:00,71.1,66.4,29.84,SSW,197,6.0,7.0,85,0.00,,,0.00,Wunderground v.1.15,2013-05-22 06:35:00,
2013-05-22 02:45:00,71.0,66.3,29.84,SW,221,7.0,9.0,85,0.00,,,0.00,Wunderground v.1.15,2013-05-22 06:45:00,
2013-05-22 02:50:00,71.0,66.3,29.84,SSW,208,7.0,7.0,85,0.00,,,0.00,Wunderground v.1.15,2013-05-22 06:50:00,
2013-05-22 02:55:00,70.9,66.2,29.84,SSW,211,7.0,7.0,85,0.00,,,0.00,Wunderground v.1.15,2013-05-22 06:55:00,
2013-05-22 03:00:00,70.8,66.1,29.84,SSW,207,7.0,7.0,85,0.00,,,0.00,Wunderground v.1.15,2013-05-22 07:00:00,
2013-05-22 03:10:00,70.3,65.6,29.84,SSW,208,7.0,7.0,85,0.00,,,0.00,Wunderground v.1.15,2013-05-22 07:10:00,
2013-05-22 03:15:00,70.0,65.3,29.84,SSW,194,6.0,7.0,85,0.00,,,0.00,Wunderground v.1.15,2013-05-22 07:15:00,
2013-05-22 03:20:00,69.9,65.2,29.84,SSW,196,6.0,6.0,85,0.00,,,0.00,Wunderground v.1.15,2013-05-22 07:20:00,
2013-05-22 03:25:00,69.6,64.9,29.84,SW,228,6.0,6.0,85,0.00,,,0.00,Wunderground v.1.15,2013-05-22 07:25:00,
2013-05-22 03:35:00,69.3,64.6,29.84,SSW,211,6.0,6.0,85,0.00,,,0.00,Wunderground v.1.15,2013-05-22 07:35:00,
2013-05-22 03:45:00,68.9,64.5,29.84,SSW,196,5.0,7.0,86,0.00,,,0.00,Wunderground v.1.15,2013-05-22 07:45:00,
2013-05-22 03:50:00,68.8,64.1,29.84,SSW,197,5.0,7.0,85,0.00,,,0.00,Wunderground v.1.15,2013-05-22 07:50:00,
2013-05-22 03:55:00,68.7,64.0,29.84,South,177,5.0,7.0,85,0.00,,,0.00,Wunderground v.1.15,2013-05-22 07:55:00,
2013-05-22 04:00:00,68.5,64.1,29.84,SW,232,4.0,5.0,86,0.00,,,0.00,Wunderground v.1.15,2013-05-22 08:00:00,
2013-05-22 04:10:00,68.1,63.8,29.84,SSW,211,2.0,5.0,86,0.00,,,0.00,Wunderground v.1.15,2013-05-22 08:10:00,
2013-05-22 04:15:00,68.0,63.7,29.84,South,190,2.0,5.0,86,0.00,,,0.00,Wunderground v.1.15,2013-05-22 08:15:00,
2013-05-22 04:25:00,67.7,63.4,29.84,SSW,203,3.0,5.0,86,0.00,,,0.00,Wunderground v.1.15,2013-05-22 08:25:00,
2013-05-22 04:30:00,67.5,63.5,29.84,SW,214,3.0,3.0,87,0.00,,,0.00,Wunderground v.1.15,2013-05-22 08:30:00,
2013-05-22 04:35:00,67.3,63.3,29.84,West,278,2.0,5.0,87,0.00,,,0.00,Wunderground v.1.15,2013-05-22 08:35:00,
2013-05-22 04:40:00,66.9,62.9,29.84,West,278,0.0,5.0,87,0.00,,,0.00,Wunderground v.1.15,2013-05-22 08:40:00,
2013-05-22 04:45:00,66.5,62.8,29.84,West,278,0.0,5.0,88,0.00,,,0.00,Wunderground v.1.15,2013-05-22 08:45:00,
2013-05-22 04:50:00,66.2,62.5,29.84,NNE,12,0.0,5.0,88,0.00,,,0.00,Wunderground v.1.15,2013-05-22 08:50:00,
2013-05-22 04:55:00,65.7,62.4,29.84,NNE,13,0.0,5.0,89,0.00,,,0.00,Wunderground v.1.15,2013-05-22 08:55:00,
2013-05-22 05:00:00,65.3,62.3,29.84,SE,133,0.0,5.0,90,0.00,,,0.00,Wunderground v.1.15,2013-05-22 09:00:00,
2013-05-22 05:10:00,65.2,62.2,29.85,SW,224,0.0,5.0,90,0.00,,,0.00,Wunderground v.1.15,2013-05-22 09:10:00,
2013-05-22 05:15:00,65.2,62.5,29.85,SW,235,1.0,5.0,91,0.00,,,0.00,Wunderground v.1.15,2013-05-22 09:15:00,
2013-05-22 05:20:00,65.3,62.6,29.85,SE,126,1.0,1.0,91,0.00,,,0.00,Wunderground v.1.15,2013-05-22 09:20:00,
2013-05-22 05:25:00,65.5,62.5,29.84,ESE,122,1.0,5.0,90,0.00,,,0.00,Wunderground v.1.15,2013-05-22 09:25:00,
2013-05-22 05:30:00,65.6,62.3,29.85,SE,143,2.0,2.0,89,0.00,,,0.00,Wunderground v.1.15,2013-05-22 09:30:00,
2013-05-22 05:35:00,65.7,62.4,29.85,SW,221,1.0,5.0,89,0.00,,,0.00,Wunderground v.1.15,2013-05-22 09:35:00,
2013-05-22 05:45:00,65.6,61.9,29.85,South,179,2.0,5.0,88,0.00,,,0.00,Wunderground v.1.15,2013-05-22 09:45:00,
2013-05-22 05:50:00,65.5,61.9,29.85,WSW,243,2.0,2.0,88,0.00,,,0.00,Wunderground v.1.15,2013-05-22 09:50:00,
2013-05-22 05:55:00,65.3,62.0,29.86,WSW,246,2.0,5.0,89,0.00,,,0.00,Wunderground v.1.15,2013-05-22 09:55:00,
2013-05-22 06:00:00,65.0,61.7,29.86,WSW,246,1.0,1.0,89,0.00,,,0.00,Wunderground v.1.15,2013-05-22 10:00:00,
2013-05-22 06:10:00,64.5,61.5,29.86,South,187,0.0,5.0,90,0.00,,,0.00,Wunderground v.1.15,2013-05-22 10:10:00,
2013-05-22 06:15:00,64.3,61.3,29.86,SSW,196,1.0,5.0,90,0.00,,,0.00,Wunderground v.1.15,2013-05-22 10:15:00,
2013-05-22 06:20:00,64.5,61.5,29.86,South,186,1.0,1.0,90,0.00,,,0.00,Wunderground v.1.15,2013-05-22 10:20:00,
2013-05-22 06:25:00,64.5,61.5,29.86,SSW,196,1.0,5.0,90,0.00,,,0.00,Wunderground v.1.15,2013-05-22 10:25:00,
2013-05-22 06:30:00,64.3,61.3,29.86,SSW,198,0.0,5.0,90,0.00,,,0.00,Wunderground v.1.15,2013-05-22 10:30:00,
2013-05-22 06:35:00,64.3,61.3,29.86,WSW,246,1.0,5.0,90,0.00,,,0.00,Wunderground v.1.15,2013-05-22 10:35:00,
2013-05-22 06:40:00,64.3,61.3,29.86,SE,136,1.0,1.0,90,0.00,,,0.00,Wunderground v.1.15,2013-05-22 10:40:00,
2013-05-22 06:45:00,64.3,61.3,29.87,South,191,0.0,5.0,90,0.00,,,0.00,Wunderground v.1.15,2013-05-22 10:45:00,
2013-05-22 06:55:00,64.4,61.7,29.87,SW,228,1.0,5.0,91,0.00,,,0.00,Wunderground v.1.15,2013-05-22 10:55:00,
2013-05-22 07:00:00,64.6,61.9,29.86,SSW,198,1.0,5.0,91,0.00,,,0.00,Wunderground v.1.15,2013-05-22 11:00:00,
2013-05-22 07:10:00,65.0,62.0,29.87,SSW,207,3.0,3.0,90,0.00,,,0.00,Wunderground v.1.15,2013-05-22 11:10:00,
2013-05-22 07:15:00,65.2,62.2,29.87,SW,235,3.0,5.0,90,0.00,,,0.00,Wunderground v.1.15,2013-05-22 11:15:00,
2013-05-22 07:20:00,65.5,62.5,29.87,South,188,3.0,5.0,90,0.00,,,0.00,Wunderground v.1.15,2013-05-22 11:20:00,
2013-05-22 07:25:00,65.7,62.4,29.87,SSW,192,3.0,5.0,89,0.00,,,0.00,Wunderground v.1.15,2013-05-22 11:25:00,
2013-05-22 07:30:00,66.0,62.7,29.88,South,184,3.0,5.0,89,0.00,,,0.00,Wunderground v.1.15,2013-05-22 11:30:00,
2013-05-22 07:35:00,66.4,63.1,29.88,SSW,200,3.0,5.0,89,0.00,,,0.00,Wunderground v.1.15,2013-05-22 11:35:00,
2013-05-22 07:45:00,67.1,63.1,29.87,SSE,153,3.0,5.0,87,0.00,,,0.00,Wunderground v.1.15,2013-05-22 11:45:00,
2013-05-22 07:55:00,67.7,63.4,29.87,SW,219,4.0,5.0,86,0.00,,,0.00,Wunderground v.1.15,2013-05-22 11:55:00,
2013-05-22 08:00:00,68.0,63.7,29.87,South,191,4.0,5.0,86,0.00,,,0.00,Wunderground v.1.15,2013-05-22 12:00:00,
2013-05-22 08:10:00,68.7,64.0,29.87,SW,217,4.0,6.0,85,0.00,,,0.00,Wunderground v.1.15,2013-05-22 12:10:00,
2013-05-22 08:15:00,69.0,64.3,29.88,SSE,158,4.0,6.0,85,0.00,,,0.00,Wunderground v.1.15,2013-05-22 12:15:00,
2013-05-22 08:20:00,69.3,64.3,29.88,SSW,204,5.0,5.0,84,0.00,,,0.00,Wunderground v.1.15,2013-05-22 12:20:00,
2013-05-22 08:25:00,69.6,64.2,29.88,SSW,207,5.0,6.0,83,0.00,,,0.00,Wunderground v.1.15,2013-05-22 12:25:00,
2013-05-22 08:35:00,70.0,64.6,29.88,South,172,6.0,6.0,83,0.00,,,0.00,Wunderground v.1.15,2013-05-22 12:35:00,
2013-05-22 08:40:00,70.4,65.0,29.88,South,172,5.0,5.0,83,0.00,,,0.00,Wunderground v.1.15,2013-05-22 12:40:00,
2013-05-22 08:45:00,70.7,64.9,29.88,South,180,5.0,5.0,82,0.00,,,0.00,Wunderground v.1.15,2013-05-22 12:45:00,
2013-05-22 08:50:00,70.9,64.8,29.88,SSW,211,6.0,8.0,81,0.00,,,0.00,Wunderground v.1.15,2013-05-22 12:50:00,
2013-05-22 08:55:00,71.2,64.7,29.88,SSE,148,7.0,9.0,80,0.00,,,0.00,Wunderground v.1.15,2013-05-22 12:55:00,
2013-05-22 09:00:00,71.4,64.5,29.88,SW,217,7.0,13.0,79,0.00,,,0.00,Wunderground v.1.15,2013-05-22 13:00:00,
2013-05-22 09:10:00,71.7,64.8,29.88,WSW,242,8.0,8.0,79,0.00,,,0.00,Wunderground v.1.15,2013-05-22 13:10:00,
2013-05-22 09:15:00,71.8,64.6,29.88,SSW,204,7.0,8.0,78,0.00,,,0.00,Wunderground v.1.15,2013-05-22 13:15:00,
2013-05-22 09:20:00,72.0,64.8,29.88,SW,217,8.0,9.0,78,0.00,,,0.00,Wunderground v.1.15,2013-05-22 13:20:00,
2013-05-22 09:25:00,72.2,65.0,29.88,SW,222,9.0,10.0,78,0.00,,,0.00,Wunderground v.1.15,2013-05-22 13:25:00,
2013-05-22 09:30:00,72.3,65.1,29.88,South,187,8.0,10.0,78,0.00,,,0.00,Wunderground v.1.15,2013-05-22 13:30:00,
2013-05-22 09:35:00,72.7,65.1,29.88,SW,224,7.0,10.0,77,0.00,,,0.00,Wunderground v.1.15,2013-05-22 13:35:00,
2013-05-22 09:40:00,73.2,65.2,29.88,SW,218,7.0,7.0,76,0.00,,,0.00,Wunderground v.1.15,2013-05-22 13:40:00,
2013-05-22 09:50:00,73.6,65.2,29.87,SSW,201,6.0,7.0,75,0.00,,,0.00,Wunderground v.1.15,2013-05-22 13:50:00,
2013-05-22 09:55:00,73.8,65.4,29.87,South,178,7.0,9.0,75,0.00,,,0.00,Wunderground v.1.15,2013-05-22 13:55:00,
2013-05-22 10:00:00,74.0,65.2,29.87,SW,222,8.0,11.0,74,0.00,,,0.00,Wunderground v.1.15,2013-05-22 14:00:00,
2013-05-22 10:10:00,74.3,65.1,29.87,WSW,238,7.0,8.0,73,0.00,,,0.00,Wunderground v.1.15,2013-05-22 14:10:00,
2013-05-22 10:15:00,74.7,65.9,29.86,SSW,212,6.0,8.0,74,0.00,,,0.00,Wunderground v.1.15,2013-05-22 14:15:00,
2013-05-22 10:25:00,75.1,65.9,29.86,South,181,6.0,6.0,73,0.00,,,0.00,Wunderground v.1.15,2013-05-22 14:25:00,
2013-05-22 10:30:00,75.4,66.1,29.86,South,176,6.0,8.0,73,0.00,,,0.00,Wunderground v.1.15,2013-05-22 14:30:00,
2013-05-22 10:35:00,75.5,65.8,29.86,SSW,200,6.0,8.0,72,0.00,,,0.00,Wunderground v.1.15,2013-05-22 14:35:00,
2013-05-22 10:40:00,75.8,65.7,29.86,South,172,6.0,9.0,71,0.00,,,0.00,Wunderground v.1.15,2013-05-22 14:40:00,
2013-05-22 10:45:00,76.2,65.7,29.85,SSW,205,6.0,9.0,70,0.00,,,0.00,Wunderground v.1.15,2013-05-22 14:45:00,
2013-05-22 10:50:00,76.6,66.5,29.85,South,188,6.0,6.0,71,0.00,,,0.00,Wunderground v.1.15,2013-05-22 14:50:00,
2013-05-22 10:55:00,76.8,65.9,29.85,South,185,5.0,6.0,69,0.00,,,0.00,Wunderground v.1.15,2013-05-22 14:55:00,
2013-05-22 11:00:00,76.8,65.4,29.85,SSW,197,5.0,5.0,68,0.00,,,0.00,Wunderground v.1.15,2013-05-22 15:00:00,
2013-05-22 11:10:00,77.1,66.6,29.85,South,180,5.0,5.0,70,0.00,,,0.00,Wunderground v.1.15,2013-05-22 15:10:00,
2013-05-22 11:15:00,77.4,67.3,29.85,SSW,203,4.0,7.0,71,0.00,,,0.00,Wunderground v.1.15,2013-05-22 15:15:00,
2013-05-22 11:20:00,77.9,66.9,29.85,SSW,205,3.0,5.0,69,0.00,,,0.00,Wunderground v.1.15,2013-05-22 15:20:00,
2013-05-22 11:25:00,78.1,67.1,29.85,SSW,192,5.0,5.0,69,0.00,,,0.00,Wunderground v.1.15,2013-05-22 15:25:00,
2013-05-22 11:30:00,78.2,66.3,29.85,South,184,6.0,7.0,67,0.00,,,0.00,Wunderground v.1.15,2013-05-22 15:30:00,
2013-05-22 11:35:00,78.5,67.5,29.85,SW,219,8.0,8.0,69,0.00,,,0.00,Wunderground v.1.15,2013-05-22 15:35:00,
2013-05-22 11:45:00,78.7,67.7,29.84,South,179,7.0,9.0,69,0.00,,,0.00,Wunderground v.1.15,2013-05-22 15:45:00,
2013-05-22 11:55:00,79.3,66.5,29.84,South,188,6.0,6.0,65,0.00,,,0.00,Wunderground v.1.15,2013-05-22 15:55:00,
2013-05-22 12:00:00,79.8,66.5,29.84,SSW,194,7.0,10.0,64,0.00,,,0.00,Wunderground v.1.15,2013-05-22 16:00:00,
2013-05-22 12:10:00,79.9,68.0,29.84,SSE,159,7.0,10.0,67,0.00,,,0.00,Wunderground v.1.15,2013-05-22 16:10:00,
2013-05-22 12:15:00,80.1,67.7,29.84,SSE,159,6.0,10.0,66,0.00,,,0.00,Wunderground v.1.15,2013-05-22 16:15:00,
2013-05-22 12:20:00,80.3,67.5,29.83,SSW,193,7.0,7.0,65,0.00,,,0.00,Wunderground v.1.15,2013-05-22 16:20:00,
2013-05-22 12:30:00,80.5,67.2,29.83,South,188,8.0,8.0,64,0.00,,,0.00,Wunderground v.1.15,2013-05-22 16:30:00,
2013-05-22 12:35:00,80.5,67.6,29.83,SSW,209,9.0,9.0,65,0.00,,,0.00,Wunderground v.1.15,2013-05-22 16:35:00,
2013-05-22 12:40:00,80.7,67.8,29.83,SSE,166,8.0,8.0,65,0.00,,,0.00,Wunderground v.1.15,2013-05-22 16:40:00,
2013-05-22 12:45:00,80.9,67.1,29.83,South,191,9.0,10.0,63,0.00,,,0.00,Wunderground v.1.15,2013-05-22 16:45:00,
2013-05-22 12:50:00,81.0,67.2,29.83,South,181,9.0,12.0,63,0.00,,,0.00,Wunderground v.1.15,2013-05-22 16:50:00,
2013-05-22 12:55:00,81.3,68.9,29.83,SE,134,9.0,12.0,66,0.00,,,0.00,Wunderground v.1.15,2013-05-22 16:55:00,
2013-05-22 13:00:00,81.5,67.7,29.83,South,174,9.0,9.0,63,0.00,,,0.00,Wunderground v.1.15,2013-05-22 17:00:00,
2013-05-22 13:10:00,81.5,67.7,29.83,SSE,159,9.0,9.0,63,0.00,,,0.00,Wunderground v.1.15,2013-05-22 17:10:00,
2013-05-22 13:15:00,81.9,67.1,29.83,SSW,199,10.0,11.0,61,0.00,,,0.00,Wunderground v.1.15,2013-05-22 17:15:00,
2013-05-22 13:20:00,81.3,67.0,29.83,South,179,9.0,9.0,62,0.00,,,0.00,Wunderground v.1.15,2013-05-22 17:20:00,
2013-05-22 13:25:00,81.4,67.1,29.82,SSW,212,9.0,15.0,62,0.00,,,0.00,Wunderground v.1.15,2013-05-22 17:25:00,
2013-05-22 13:30:00,81.6,66.8,29.82,SSW,209,11.0,11.0,61,0.00,,,0.00,Wunderground v.1.15,2013-05-22 17:30:00,
2013-05-22 13:35:00,81.8,67.0,29.82,SW,222,12.0,12.0,61,0.00,,,0.00,Wunderground v.1.15,2013-05-22 17:35:00,
2013-05-22 13:45:00,82.0,68.2,29.81,SW,218,10.0,13.0,63,0.00,,,0.00,Wunderground v.1.15,2013-05-22 17:45:00,
2013-05-22 13:50:00,82.0,67.2,29.81,SW,233,11.0,11.0,61,0.00,,,0.00,Wunderground v.1.15,2013-05-22 17:50:00,
2013-05-22 13:55:00,82.1,66.8,29.81,SSW,201,11.0,20.0,60,0.00,,,0.00,Wunderground v.1.15,2013-05-22 17:55:00,
2013-05-22 14:00:00,82.2,67.4,29.80,SSW,203,12.0,12.0,61,0.00,,,0.00,Wunderground v.1.15,2013-05-22 18:00:00,
2013-05-22 14:10:00,82.5,67.2,29.80,SW,221,10.0,13.0,60,0.00,,,0.00,Wunderground v.1.15,2013-05-22 18:10:00,
2013-05-22 14:15:00,83.0,67.2,29.80,SSW,203,11.0,20.0,59,0.00,,,0.00,Wunderground v.1.15,2013-05-22 18:15:00,
2013-05-22 14:25:00,83.4,67.1,29.80,SSW,205,14.0,14.0,58,0.00,,,0.00,Wunderground v.1.15,2013-05-22 18:25:00,
2013-05-22 14:30:00,83.2,66.9,29.80,SSW,193,12.0,15.0,58,0.00,,,0.00,Wunderground v.1.15,2013-05-22 18:30:00,
2013-05-22 14:40:00,83.2,65.9,29.80,South,187,13.0,21.0,56,0.00,,,0.00,Wunderground v.1.15,2013-05-22 18:40:00,
2013-05-22 14:45:00,83.1,66.8,29.80,SW,217,14.0,21.0,58,0.00,,,0.00,Wunderground v.1.15,2013-05-22 18:45:00,
2013-05-22 14:50:00,83.6,66.2,29.79,WSW,238,14.0,14.0,56,0.00,,,0.00,Wunderground v.1.15,2013-05-22 18:50:00,
2013-05-22 14:55:00,83.3,66.5,29.79,SW,225,12.0,15.0,57,0.00,,,0.00,Wunderground v.1.15,2013-05-22 18:55:00,
2013-05-22 15:00:00,83.4,66.6,29.80,South,179,12.0,14.0,57,0.00,,,0.00,Wunderground v.1.15,2013-05-22 19:00:00,
2013-05-22 15:10:00,83.4,66.1,29.79,SSW,201,14.0,20.0,56,0.00,,,0.00,Wunderground v.1.15,2013-05-22 19:10:00,
2013-05-22 15:15:00,83.3,64.4,29.79,SSW,205,15.0,20.0,53,0.00,,,0.00,Wunderground v.1.15,2013-05-22 19:15:00,
2013-05-22 15:20:00,83.3,65.4,29.79,SSW,200,15.0,15.0,55,0.00,,,0.00,Wunderground v.1.15,2013-05-22 19:20:00,
2013-05-22 15:25:00,83.6,65.2,29.78,SSW,203,14.0,15.0,54,0.00,,,0.00,Wunderground v.1.15,2013-05-22 19:25:00,
2013-05-22 15:30:00,83.6,66.8,29.78,SW,218,13.0,13.0,57,0.00,,,0.00,Wunderground v.1.15,2013-05-22 19:30:00,
2013-05-22 15:35:00,83.6,67.8,29.78,SSW,211,11.0,13.0,59,0.00,,,0.00,Wunderground v.1.15,2013-05-22 19:35:00,
2013-05-22 15:45:00,82.8,65.5,29.78,SW,214,10.0,13.0,56,0.00,,,0.00,Wunderground v.1.15,2013-05-22 19:45:00,
2013-05-22 15:50:00,82.3,66.0,29.77,SW,226,10.0,11.0,58,0.00,,,0.00,Wunderground v.1.15,2013-05-22 19:50:00,
2013-05-22 15:55:00,82.0,65.8,29.77,SSW,201,11.0,11.0,58,0.00,,,0.00,Wunderground v.1.15,2013-05-22 19:55:00,
2013-05-22 16:00:00,82.0,65.3,29.77,SW,229,10.0,11.0,57,0.00,,,0.00,Wunderground v.1.15,2013-05-22 20:00:00,
2013-05-22 16:10:00,82.7,64.9,29.77,SSW,201,10.0,11.0,55,0.00,,,0.00,Wunderground v.1.15,2013-05-22 20:10:00,
2013-05-22 16:15:00,83.0,65.2,29.76,South,184,11.0,12.0,55,0.00,,,0.00,Wunderground v.1.15,2013-05-22 20:15:00,
2013-05-22 16:25:00,82.7,64.9,29.76,SW,218,11.0,18.0,55,0.00,,,0.00,Wunderground v.1.15,2013-05-22 20:25:00,
2013-05-22 16:35:00,82.8,65.5,29.76,SSW,211,8.0,10.0,56,0.00,,,0.00,Wunderground v.1.15,2013-05-22 20:35:00,
2013-05-22 16:40:00,82.9,66.1,29.76,SSW,197,9.0,9.0,57,0.00,,,0.00,Wunderground v.1.15,2013-05-22 20:40:00,
2013-05-22 16:45:00,82.9,66.1,29.77,SW,228,9.0,10.0,57,0.00,,,0.00,Wunderground v.1.15,2013-05-22 20:45:00,
2013-05-22 16:50:00,82.8,66.0,29.77,SSW,210,9.0,9.0,57,0.00,,,0.00,Wunderground v.1.15,2013-05-22 20:50:00,
2013-05-22 16:55:00,82.3,65.0,29.78,SSW,210,9.0,11.0,56,0.00,,,0.00,Wunderground v.1.15,2013-05-22 20:55:00,
2013-05-22 17:00:00,81.5,65.3,29.78,SSE,148,11.0,11.0,58,0.00,,,0.00,Wunderground v.1.15,2013-05-22 21:00:00,
2013-05-22 17:10:00,80.4,64.8,29.77,SSW,199,11.0,12.0,59,0.00,,,0.00,Wunderground v.1.15,2013-05-22 21:10:00,
2013-05-22 17:15:00,80.0,64.9,29.77,WSW,251,10.0,12.0,60,0.00,,,0.00,Wunderground v.1.15,2013-05-22 21:15:00,
2013-05-22 17:20:00,79.8,64.7,29.76,WSW,238,10.0,10.0,60,0.00,,,0.00,Wunderground v.1.15,2013-05-22 21:20:00,
2013-05-22 17:30:00,79.4,64.3,29.76,SW,231,9.0,12.0,60,0.00,,,0.00,Wunderground v.1.15,2013-05-22 21:30:00,
2013-05-22 17:35:00,79.4,65.2,29.76,SSW,204,7.0,12.0,62,0.00,,,0.00,Wunderground v.1.15,2013-05-22 21:35:00,
2013-05-22 17:40:00,79.4,65.2,29.76,SW,219,7.0,9.0,62,0.00,,,0.00,Wunderground v.1.15,2013-05-22 21:40:00,
2013-05-22 17:45:00,79.3,64.7,29.76,WSW,257,9.0,9.0,61,0.00,,,0.00,Wunderground v.1.15,2013-05-22 21:45:00,
2013-05-22 17:50:00,79.4,64.8,29.76,SSW,207,8.0,10.0,61,0.00,,,0.00,Wunderground v.1.15,2013-05-22 21:50:00,
2013-05-22 17:55:00,79.6,64.5,29.76,SSW,196,8.0,10.0,60,0.00,,,0.00,Wunderground v.1.15,2013-05-22 21:55:00,
2013-05-22 18:00:00,79.9,65.7,29.76,SW,236,9.0,11.0,62,0.00,,,0.00,Wunderground v.1.15,2013-05-22 22:00:00,
2013-05-22 18:10:00,79.9,64.3,29.76,SW,228,11.0,13.0,59,0.00,,,0.00,Wunderground v.1.15,2013-05-22 22:10:00,
2013-05-22 18:15:00,79.9,63.8,29.76,SSW,208,11.0,13.0,58,0.00,,,0.00,Wunderground v.1.15,2013-05-22 22:15:00,
2013-05-22 18:20:00,79.9,63.8,29.76,SW,228,11.0,11.0,58,0.00,,,0.00,Wunderground v.1.15,2013-05-22 22:20:00,
2013-05-22 18:25:00,79.6,63.0,29.76,SW,231,10.0,11.0,57,0.00,,,0.00,Wunderground v.1.15,2013-05-22 22:25:00,
2013-05-22 18:30:00,79.1,63.1,29.76,SSW,212,9.0,9.0,58,0.00,,,0.00,Wunderground v.1.15,2013-05-22 22:30:00,
2013-05-22 18:40:00,78.5,62.5,29.77,SW,219,11.0,11.0,58,0.00,,,0.00,Wunderground v.1.15,2013-05-22 22:40:00,
2013-05-22 18:45:00,78.2,62.2,29.77,SW,236,9.0,11.0,58,0.00,,,0.00,Wunderground v.1.15,2013-05-22 22:45:00,
2013-05-22 18:50:00,78.1,62.1,29.77,SSW,211,8.0,9.0,58,0.00,,,0.00,Wunderground v.1.15,2013-05-22 22:50:00,
2013-05-22 19:00:00,77.8,62.3,29.77,SSW,212,9.0,10.0,59,0.00,,,0.00,Wunderground v.1.15,2013-05-22 23:00:00,
2013-05-22 19:15:00,77.3,61.9,29.77,SW,217,9.0,10.0,59,0.00,,,0.00,Wunderground v.1.15,2013-05-22 23:15:00,
2013-05-22 19:20:00,77.0,61.6,29.78,South,191,8.0,8.0,59,0.00,,,0.00,Wunderground v.1.15,2013-05-22 23:20:00,
2013-05-22 19:25:00,76.9,61.5,29.78,SSW,210,8.0,8.0,59,0.00,,,0.00,Wunderground v.1.15,2013-05-22 23:25:00,
2013-05-22 19:35:00,76.7,61.8,29.77,South,186,9.0,10.0,60,0.00,,,0.00,Wunderground v.1.15,2013-05-22 23:35:00,
2013-05-22 19:40:00,76.5,61.6,29.77,SSW,197,9.0,9.0,60,0.00,,,0.00,Wunderground v.1.15,2013-05-22 23:40:00,
2013-05-22 19:45:00,76.4,61.5,29.77,SW,224,10.0,10.0,60,0.00,,,0.00,Wunderground v.1.15,2013-05-22 23:45:00,
2013-05-22 19:55:00,76.1,61.7,29.78,SW,226,7.0,10.0,61,0.00,,,0.00,Wunderground v.1.15,2013-05-22 23:55:00,
2013-05-22 20:00:00,75.9,61.5,29.78,South,185,7.0,7.0,61,0.00,,,0.00,Wunderground v.1.15,2013-05-23 00:00:00,
2013-05-22 20:10:00,75.6,61.7,29.77,South,186,6.0,6.0,62,0.00,,,0.00,Wunderground v.1.15,2013-05-23 00:10:00,
2013-05-22 20:15:00,75.5,61.6,29.77,SW,222,5.0,6.0,62,0.00,,,0.00,Wunderground v.1.15,2013-05-23 00:15:00,
2013-05-22 20:25:00,75.1,61.6,29.77,SW,219,4.0,5.0,63,0.00,,,0.00,Wunderground v.1.15,2013-05-23 00:25:00,
2013-05-22 20:30:00,74.9,61.9,29.77,SSW,204,4.0,4.0,64,0.00,,,0.00,Wunderground v.1.15,2013-05-23 00:30:00,
2013-05-22 20:35:00,74.8,61.8,29.77,WSW,257,4.0,5.0,64,0.00,,,0.00,Wunderground v.1.15,2013-05-23 00:35:00,
2013-05-22 20:40:00,74.8,62.2,29.77,SW,226,4.0,4.0,65,0.00,,,0.00,Wunderground v.1.15,2013-05-23 00:40:00,
2013-05-22 20:45:00,74.8,62.2,29.77,SW,214,5.0,7.0,65,0.00,,,0.00,Wunderground v.1.15,2013-05-23 00:45:00,
2013-05-22 20:50:00,74.8,62.2,29.77,SSW,208,4.0,5.0,65,0.00,,,0.00,Wunderground v.1.15,2013-05-23 00:50:00,
2013-05-22 20:55:00,74.7,62.6,29.78,SW,214,4.0,5.0,66,0.00,,,0.00,Wunderground v.1.15,2013-05-23 00:55:00,
2013-05-22 21:00:00,74.6,62.5,29.78,WSW,245,3.0,5.0,66,0.00,,,0.00,Wunderground v.1.15,2013-05-23 01:00:00,
2013-05-22 21:10:00,74.6,62.5,29.78,SSW,213,5.0,6.0,66,0.00,,,0.00,Wunderground v.1.15,2013-05-23 01:10:00,
2013-05-22 21:15:00,74.7,62.6,29.78,SSE,168,5.0,8.0,66,0.00,,,0.00,Wunderground v.1.15,2013-05-23 01:15:00,
2013-05-22 21:20:00,74.7,63.0,29.78,SSW,208,6.0,9.0,67,0.00,,,0.00,Wunderground v.1.15,2013-05-23 01:20:00,
2013-05-22 21:25:00,74.5,63.2,29.78,SW,217,7.0,9.0,68,0.00,,,0.00,Wunderground v.1.15,2013-05-23 01:25:00,
2013-05-22 21:30:00,74.0,63.2,29.78,SW,231,8.0,10.0,69,0.00,,,0.00,Wunderground v.1.15,2013-05-23 01:30:00,
2013-05-22 21:35:00,73.9,63.1,29.79,SW,236,8.0,10.0,69,0.00,,,0.00,Wunderground v.1.15,2013-05-23 01:35:00,
2013-05-22 21:40:00,73.9,63.1,29.79,SW,215,8.0,9.0,69,0.00,,,0.00,Wunderground v.1.15,2013-05-23 01:40:00,
2013-05-22 21:45:00,73.8,63.0,29.79,SE,145,8.0,9.0,69,0.00,,,0.00,Wunderground v.1.15,2013-05-23 01:45:00,
2013-05-22 21:50:00,73.7,62.9,29.79,SSW,209,8.0,9.0,69,0.00,,,0.00,Wunderground v.1.15,2013-05-23 01:50:00,
2013-05-22 22:00:00,73.6,63.2,29.78,WSW,246,8.0,14.0,70,0.00,,,0.00,Wunderground v.1.15,2013-05-23 02:00:00,
2013-05-22 22:10:00,73.0,63.4,29.79,SSW,196,9.0,9.0,72,0.00,,,0.00,Wunderground v.1.15,2013-05-23 02:10:00,
2013-05-22 22:20:00,71.8,63.4,29.80,SSW,196,11.0,11.0,75,0.00,,,0.00,Wunderground v.1.15,2013-05-23 02:20:00,
2013-05-22 22:25:00,70.9,63.7,29.80,SW,232,10.0,11.0,78,0.00,,,0.00,Wunderground v.1.15,2013-05-23 02:25:00,
2013-05-22 22:30:00,70.2,63.7,29.80,SW,219,9.0,10.0,80,0.00,,,0.00,Wunderground v.1.15,2013-05-23 02:30:00,
2013-05-22 22:35:00,69.7,63.6,29.80,SSW,213,9.0,13.0,81,0.00,,,0.00,Wunderground v.1.15,2013-05-23 02:35:00,
2013-05-22 22:45:00,69.0,63.6,29.80,SSW,207,9.0,11.0,83,0.00,,,0.00,Wunderground v.1.15,2013-05-23 02:45:00,
2013-05-22 22:55:00,68.5,63.5,29.80,SW,224,5.0,8.0,84,0.00,,,0.00,Wunderground v.1.15,2013-05-23 02:55:00,
2013-05-22 23:00:00,68.3,63.3,29.80,SW,222,4.0,5.0,84,0.00,,,0.00,Wunderground v.1.15,2013-05-23 03:00:00,
2013-05-22 23:10:00,68.2,63.5,29.80,WSW,246,4.0,4.0,85,0.00,,,0.00,Wunderground v.1.15,2013-05-23 03:10:00,
2013-05-22 23:20:00,67.8,63.5,29.80,SSW,211,3.0,5.0,86,0.00,,,0.00,Wunderground v.1.15,2013-05-23 03:20:00,
2013-05-22 23:25:00,67.7,63.7,29.79,SW,221,2.0,5.0,87,0.00,,,0.00,Wunderground v.1.15,2013-05-23 03:25:00,
2013-05-22 23:30:00,67.5,63.5,29.79,SSE,159,3.0,5.0,87,0.00,,,0.00,Wunderground v.1.15,2013-05-23 03:30:00,
2013-05-22 23:35:00,67.5,63.8,29.79,South,191,3.0,5.0,88,0.00,,,0.00,Wunderground v.1.15,2013-05-23 03:35:00,
2013-05-22 23:40:00,67.5,63.8,29.79,SSW,193,3.0,5.0,88,0.00,,,0.00,Wunderground v.1.15,2013-05-23 03:40:00,
2013-05-22 23:45:00,67.4,63.7,29.79,SSW,205,2.0,5.0,88,0.00,,,0.00,Wunderground v.1.15,2013-05-23 03:45:00,
2013-05-22 23:50:00,67.5,64.1,29.80,SSW,196,3.0,8.0,89,0.00,,,0.01,Wunderground v.1.15,2013-05-23 03:50:00,